Ocean Majesty — CQSC — position and weather

sailwx.info

Track history (hours):
 
Tides and Currents Weather Stations Pressure Air Temp Water Temp Dewpoint Dewpoint Depression Visibility Wind Speed Wind Dir Waves Ship Positions

Ocean Majesty

Last reported at 2015-Sep-02 00:06 UTC. Time now 2015-Sep-04 01:39 UTC.
Position N 46°11' W 002°12'.

Length 136 m; draft 6.3 m.

Type: Passenger vessel. MMSI: 255717000.

Date/timePositionNaut miles runAvg speedWind from/ knotsBaromVisibWave heightAir tempDewpointWater temp
2015-Sep-02 00:06N 46°11' W 002°12'6413.7
2015-Sep-01 19:24N 46°54' W 003°22'1415.9
2015-Sep-01 18:33N 47°03' W 003°38'1616.1
2015-Sep-01 17:33N 47°13' W 003°55'1616.1
2015-Sep-01 16:33N 47°24' W 004°14'25010.3
2015-Aug-31 16:24N 50°31' W 000°03'1417.1
2015-Aug-31 15:34N 50°35' E 000°19'1616.3
2015-Aug-31 14:33N 50°42' E 000°42'1914.7
2015-Aug-31 13:16N 50°53' E 001°07'913.2
2015-Aug-31 12:33N 50°59' E 001°18'1313.5
2015-Aug-31 11:34N 51°08' E 001°35'1515.4
2015-Aug-31 10:33N 51°20' E 001°50'1818.0
2015-Aug-31 09:33N 51°35' E 002°06'9315.4
2015-Aug-31 03:32N 52°47' E 003°42'1514.0
2015-Aug-31 02:26N 52°58' E 003°59'1415.5
2015-Aug-31 01:31N 53°07' E 004°17'3115.5
2015-Aug-30 23:31N 53°31' E 004°51'1516.1
2015-Aug-30 22:34N 53°37' E 005°15'1515.1
2015-Aug-30 21:33N 53°41' E 005°39'1514.6
2015-Aug-30 20:33N 53°46' E 006°03'1414.5
2015-Aug-30 19:33N 53°50' E 006°26'1514.7
2015-Aug-30 18:33N 53°53' E 006°50'1615.8
2015-Aug-30 17:34N 53°57' E 007°17'1514.8
2015-Aug-30 16:34N 53°57' E 007°42'1413.7
2015-Aug-30 15:33N 53°51' E 008°03'1716.6
2015-Aug-30 14:33N 53°40' E 008°24'8 8.1
2015-Aug-30 13:32N 53°34' E 008°33'0 0.0
2015-Aug-30 12:32N 53°34' E 008°33'0 0.0
2015-Aug-30 11:32N 53°34' E 008°33'0 0.0
2015-Aug-30 10:32N 53°34' E 008°33'0 0.0
2015-Aug-30 09:32N 53°34' E 008°33'0 0.0
2015-Aug-30 08:32N 53°34' E 008°33'0 0.0
2015-Aug-30 07:32N 53°34' E 008°33'2 2.4
2015-Aug-30 06:33N 53°36' E 008°31'1211.8
2015-Aug-30 05:33N 53°43' E 008°16'1312.9
2015-Aug-30 04:33N 53°51' E 007°58'1211.6
2015-Aug-30 03:33N 53°55' E 007°40'7 7.2
2015-Aug-30 02:33N 54°02' E 007°45'8 7.9
2015-Aug-30 01:33N 53°56' E 007°36'1111.1
2015-Aug-30 00:32N 53°53' E 007°18'1211.5
2015-Aug-29 23:31N 53°50' E 006°59'1211.8
2015-Aug-29 22:31N 53°47' E 006°39'1212.3
2015-Aug-29 21:32N 53°45' E 006°19'1312.7
2015-Aug-29 20:33N 53°41' E 005°59'1312.8
2015-Aug-29 19:33N 53°37' E 005°39'1313.1
2015-Aug-29 18:33N 53°33' E 005°18'1313.5
2015-Aug-29 17:34N 53°29' E 004°56'2712.7
2015-Aug-29 15:24N 53°07' E 004°27'1513.6
2015-Aug-29 14:18N 52°54' E 004°16'1113.2
2015-Aug-29 13:27N 52°45' E 004°05'9411.9
2015-Aug-29 05:30N 51°35' E 002°21'1313.4
2015-Aug-29 04:33N 51°26' E 002°08'1313.3
2015-Aug-29 03:33N 51°13' E 002°02'1414.0
2015-Aug-29 02:33N 51°05' E 001°44'1514.9
2015-Aug-29 01:33N 50°54' E 001°28'8114.8
2015-Aug-28 20:06N 49°53' E 000°04'916.2
2015-Aug-28 19:34N 49°47' W 000°06'1414.0
2015-Aug-28 18:33N 49°33' W 000°10'1212.1
2015-Aug-28 17:33N 49°26' E 000°05'6 6.1
2015-Aug-28 16:32N 49°26' E 000°14'0 0.0
2015-Aug-28 15:29N 49°26' E 000°14'0 0.0
2015-Aug-28 14:32N 49°26' E 000°14'0 0.0
2015-Aug-28 13:32N 49°26' E 000°14'0 0.0
2015-Aug-28 12:32N 49°26' E 000°14'0 0.0
2015-Aug-28 11:32N 49°26' E 000°14'0 0.0
2015-Aug-28 10:32N 49°26' E 000°14'0 0.0
2015-Aug-28 09:32N 49°26' E 000°14'0 0.0
2015-Aug-28 08:32N 49°26' E 000°14'0 0.0
2015-Aug-28 07:32N 49°26' E 000°14'0 0.0
2015-Aug-28 06:32N 49°26' E 000°14'0 0.4
2015-Aug-28 05:34N 49°26' E 000°14'1312.6
2015-Aug-28 04:33N 49°29' W 000°05'1615.9
2015-Aug-28 03:33N 49°34' W 000°28'21212.5
2015-Aug-27 10:33N 48°12' W 005°25'1615.6
2015-Aug-27 09:33N 47°59' W 005°11'6215.4
2015-Aug-27 05:33N 47°22' W 003°58'1515.4
2015-Aug-27 04:33N 47°13' W 003°39'1715.1
2015-Aug-27 03:27N 47°03' W 003°20'4714.7
2015-Aug-27 00:13N 46°35' W 002°24'1014.5
2015-Aug-26 23:34N 46°29' W 002°13'1514.6
2015-Aug-26 22:33N 46°20' W 001°56'1514.8
2015-Aug-26 21:33N 46°12' W 001°39'1414.4
2015-Aug-26 20:33N 46°06' W 001°19'5 4.9
2015-Aug-26 19:31N 46°10' W 001°14'0 0.0
2015-Aug-26 18:31N 46°10' W 001°14'0 0.0
2015-Aug-26 17:31N 46°10' W 001°14'0 0.0
2015-Aug-26 16:31N 46°10' W 001°14'0 0.0
2015-Aug-26 15:34N 46°10' W 001°14'0 0.0
2015-Aug-26 14:28N 46°10' W 001°14'0 0.0
2015-Aug-26 13:31N 46°10' W 001°14'0 0.0
2015-Aug-26 12:28N 46°10' W 001°14'0 0.0
2015-Aug-26 11:31N 46°10' W 001°14'1 0.8
2015-Aug-26 10:33N 46°09' W 001°15'9 9.5
2015-Aug-26 09:33N 46°07' W 001°28'10 9.9
2015-Aug-26 08:31N 46°06' W 001°43'2812.3
2015-Aug-26 06:14N 45°38' W 001°39'811.8
2015-Aug-26 05:33N 45°36' W 001°27'1313.1
2015-Aug-26 04:31N 45°39' W 001°09'  
2015-Aug-23 22:33N 47°56' W 005°09'  
Track history (hours):
 
Tides and Currents Weather Stations Pressure Air Temp Water Temp Dewpoint Dewpoint Depression Visibility Wind Speed Wind Dir Waves Ship Positions

Ocean Majesty

Last reported at 2015-Sep-02 00:06 UTC. Time now 2015-Sep-04 01:39 UTC.
Position N 46°11' W 002°12'.

Length 136 m; draft 6.3 m.

Type: Passenger vessel. MMSI: 255717000.

Date/timePositionNaut miles runAvg speedWind from/ knotsBaromVisibWave heightAir tempDewpointWater temp
2015-Sep-02 00:06N 46°11' W 002°12'6413.7
2015-Sep-01 19:24N 46°54' W 003°22'1415.9
2015-Sep-01 18:33N 47°03' W 003°38'1616.1
2015-Sep-01 17:33N 47°13' W 003°55'1616.1
2015-Sep-01 16:33N 47°24' W 004°14'25010.3
2015-Aug-31 16:24N 50°31' W 000°03'1417.1
2015-Aug-31 15:34N 50°35' E 000°19'1616.3
2015-Aug-31 14:33N 50°42' E 000°42'1914.7
2015-Aug-31 13:16N 50°53' E 001°07'913.2
2015-Aug-31 12:33N 50°59' E 001°18'1313.5
2015-Aug-31 11:34N 51°08' E 001°35'1515.4
2015-Aug-31 10:33N 51°20' E 001°50'1818.0
2015-Aug-31 09:33N 51°35' E 002°06'9315.4
2015-Aug-31 03:32N 52°47' E 003°42'1514.0
2015-Aug-31 02:26N 52°58' E 003°59'1415.5
2015-Aug-31 01:31N 53°07' E 004°17'3115.5
2015-Aug-30 23:31N 53°31' E 004°51'1516.1
2015-Aug-30 22:34N 53°37' E 005°15'1515.1
2015-Aug-30 21:33N 53°41' E 005°39'1514.6
2015-Aug-30 20:33N 53°46' E 006°03'1414.5
2015-Aug-30 19:33N 53°50' E 006°26'1514.7
2015-Aug-30 18:33N 53°53' E 006°50'1615.8
2015-Aug-30 17:34N 53°57' E 007°17'1514.8
2015-Aug-30 16:34N 53°57' E 007°42'1413.7
2015-Aug-30 15:33N 53°51' E 008°03'1716.6
2015-Aug-30 14:33N 53°40' E 008°24'8 8.1
2015-Aug-30 13:32N 53°34' E 008°33'0 0.0
2015-Aug-30 12:32N 53°34' E 008°33'0 0.0
2015-Aug-30 11:32N 53°34' E 008°33'0 0.0
2015-Aug-30 10:32N 53°34' E 008°33'0 0.0
2015-Aug-30 09:32N 53°34' E 008°33'0 0.0
2015-Aug-30 08:32N 53°34' E 008°33'0 0.0
2015-Aug-30 07:32N 53°34' E 008°33'2 2.4
2015-Aug-30 06:33N 53°36' E 008°31'1211.8
2015-Aug-30 05:33N 53°43' E 008°16'1312.9
2015-Aug-30 04:33N 53°51' E 007°58'1211.6
2015-Aug-30 03:33N 53°55' E 007°40'7 7.2
2015-Aug-30 02:33N 54°02' E 007°45'8 7.9
2015-Aug-30 01:33N 53°56' E 007°36'1111.1
2015-Aug-30 00:32N 53°53' E 007°18'1211.5
2015-Aug-29 23:31N 53°50' E 006°59'1211.8
2015-Aug-29 22:31N 53°47' E 006°39'1212.3
2015-Aug-29 21:32N 53°45' E 006°19'1312.7
2015-Aug-29 20:33N 53°41' E 005°59'1312.8
2015-Aug-29 19:33N 53°37' E 005°39'1313.1
2015-Aug-29 18:33N 53°33' E 005°18'1313.5
2015-Aug-29 17:34N 53°29' E 004°56'2712.7
2015-Aug-29 15:24N 53°07' E 004°27'1513.6
2015-Aug-29 14:18N 52°54' E 004°16'1113.2
2015-Aug-29 13:27N 52°45' E 004°05'9411.9
2015-Aug-29 05:30N 51°35' E 002°21'1313.4
2015-Aug-29 04:33N 51°26' E 002°08'1313.3
2015-Aug-29 03:33N 51°13' E 002°02'1414.0
2015-Aug-29 02:33N 51°05' E 001°44'1514.9
2015-Aug-29 01:33N 50°54' E 001°28'8114.8
2015-Aug-28 20:06N 49°53' E 000°04'916.2
2015-Aug-28 19:34N 49°47' W 000°06'1414.0
2015-Aug-28 18:33N 49°33' W 000°10'1212.1
2015-Aug-28 17:33N 49°26' E 000°05'6 6.1
2015-Aug-28 16:32N 49°26' E 000°14'0 0.0
2015-Aug-28 15:29N 49°26' E 000°14'0 0.0
2015-Aug-28 14:32N 49°26' E 000°14'0 0.0
2015-Aug-28 13:32N 49°26' E 000°14'0 0.0
2015-Aug-28 12:32N 49°26' E 000°14'0 0.0
2015-Aug-28 11:32N 49°26' E 000°14'0 0.0
2015-Aug-28 10:32N 49°26' E 000°14'0 0.0
2015-Aug-28 09:32N 49°26' E 000°14'0 0.0
2015-Aug-28 08:32N 49°26' E 000°14'0 0.0
2015-Aug-28 07:32N 49°26' E 000°14'0 0.0
2015-Aug-28 06:32N 49°26' E 000°14'0 0.4
2015-Aug-28 05:34N 49°26' E 000°14'1312.6
2015-Aug-28 04:33N 49°29' W 000°05'1615.9
2015-Aug-28 03:33N 49°34' W 000°28'21212.5
2015-Aug-27 10:33N 48°12' W 005°25'1615.6
2015-Aug-27 09:33N 47°59' W 005°11'6215.4
2015-Aug-27 05:33N 47°22' W 003°58'1515.4
2015-Aug-27 04:33N 47°13' W 003°39'1715.1
2015-Aug-27 03:27N 47°03' W 003°20'4714.7
2015-Aug-27 00:13N 46°35' W 002°24'1014.5
2015-Aug-26 23:34N 46°29' W 002°13'1514.6
2015-Aug-26 22:33N 46°20' W 001°56'1514.8
2015-Aug-26 21:33N 46°12' W 001°39'1414.4
2015-Aug-26 20:33N 46°06' W 001°19'5 4.9
2015-Aug-26 19:31N 46°10' W 001°14'0 0.0
2015-Aug-26 18:31N 46°10' W 001°14'0 0.0
2015-Aug-26 17:31N 46°10' W 001°14'0 0.0
2015-Aug-26 16:31N 46°10' W 001°14'0 0.0
2015-Aug-26 15:34N 46°10' W 001°14'0 0.0
2015-Aug-26 14:28N 46°10' W 001°14'0 0.0
2015-Aug-26 13:31N 46°10' W 001°14'0 0.0
2015-Aug-26 12:28N 46°10' W 001°14'0 0.0
2015-Aug-26 11:31N 46°10' W 001°14'1 0.8
2015-Aug-26 10:33N 46°09' W 001°15'9 9.5
2015-Aug-26 09:33N 46°07' W 001°28'10 9.9
2015-Aug-26 08:31N 46°06' W 001°43'2812.3
2015-Aug-26 06:14N 45°38' W 001°39'811.8
2015-Aug-26 05:33N 45°36' W 001°27'1313.1
2015-Aug-26 04:31N 45°39' W 001°09'  
2015-Aug-23 22:33N 47°56' W 005°09'  

Dump ship's entire track history